Time;durP1;ratioP1;P1;durP2;ratioP2;P2;SDS_P1;SDS_P2;PMS_P1;PMS_P2;Temp;Humidity;BMP_temperature;BMP_pressure;BME280_temperature;BME280_humidity;BME280_pressure;Samples;Min_cycle;Max_cycle;Signal;HPM_P1;HPM_P2
2022/10/18 00:02:21;;;;;;;228.75;56.83;;;12.60;99.90;;;;;;5103892;28;20088;-77
2022/10/18 00:04:46;;;;;;;245.50;57.65;;;12.60;99.90;;;;;;5092903;28;20027;-76
2022/10/18 00:07:12;;;;;;;411.48;70.43;;;12.60;99.90;;;;;;5103267;28;20486;-76
2022/10/18 00:09:38;;;;;;;241.65;57.65;;;12.60;99.90;;;;;;5091262;27;20118;-77
2022/10/18 00:12:04;;;;;;;207.95;54.55;;;12.60;99.90;;;;;;5075635;28;20044;-76
2022/10/18 00:14:29;;;;;;;332.02;62.72;;;12.60;99.90;;;;;;5095198;27;20066;-78
2022/10/18 00:16:55;;;;;;;250.00;57.97;;;12.50;99.90;;;;;;5117121;27;20039;-77
2022/10/18 00:19:21;;;;;;;165.77;50.17;;;12.50;99.90;;;;;;5086517;28;20474;-76
2022/10/18 00:21:49;;;;;;;251.55;55.67;;;12.50;99.90;;;;;;5115229;27;20051;-77
2022/10/18 00:24:15;;;;;;;199.27;53.30;;;12.50;99.90;;;;;;5095439;27;20142;-77
2022/10/18 00:26:40;;;;;;;226.43;56.28;;;12.50;99.90;;;;;;5101482;28;20169;-78
2022/10/18 00:29:06;;;;;;;163.57;49.95;;;12.50;99.90;;;;;;5073274;28;20072;-76
2022/10/18 00:31:34;;;;;;;152.27;47.83;;;12.50;99.90;;;;;;5084551;28;20032;-76
2022/10/18 00:34:04;;;;;;;198.15;52.90;;;12.50;99.90;;;;;;5108004;28;20050;-77
2022/10/18 00:36:31;;;;;;;192.98;51.15;;;12.50;99.90;;;;;;5082983;28;20036;-76
2022/10/18 00:38:57;;;;;;;167.50;49.30;;;12.50;99.90;;;;;;5063533;27;20055;-76
2022/10/18 00:41:26;;;;;;;147.43;48.17;;;12.40;99.90;;;;;;5095929;27;20473;-77
2022/10/18 00:43:55;;;;;;;187.98;53.78;;;12.50;99.90;;;;;;5089810;28;20040;-76
2022/10/18 00:46:21;;;;;;;152.45;48.95;;;12.40;99.90;;;;;;5094735;28;20158;-77
2022/10/18 00:48:48;;;;;;;236.85;54.55;;;12.50;99.90;;;;;;5069920;28;20582;-81
2022/10/18 00:51:15;;;;;;;228.52;54.40;;;12.50;99.90;;;;;;5108118;27;20077;-77
2022/10/18 00:53:41;;;;;;;172.02;49.47;;;12.50;99.90;;;;;;5081157;27;20052;-76
2022/10/18 00:56:07;;;;;;;153.05;48.22;;;12.50;99.90;;;;;;5090085;28;20051;-76
2022/10/18 00:58:33;;;;;;;176.23;51.30;;;12.50;99.90;;;;;;5102889;27;20050;-78
2022/10/18 01:00:59;;;;;;;279.25;58.17;;;12.50;99.90;;;;;;5072939;28;20047;-76
2022/10/18 01:03:25;;;;;;;176.00;51.38;;;12.50;99.90;;;;;;5092332;28;20395;-77
2022/10/18 01:05:50;;;;;;;241.98;55.67;;;12.50;99.90;;;;;;5082213;28;20043;-77
2022/10/18 01:08:19;;;;;;;284.60;60.58;;;12.50;99.90;;;;;;5092202;28;20040;-76
2022/10/18 01:11:35;;;;;;;271.83;59.58;;;12.50;99.90;;;;;;5093905;28;20075;-77
2022/10/18 01:14:13;;;;;;;144.82;47.88;;;12.50;99.90;;;;;;5052647;28;20498;-78
2022/10/18 01:16:47;;;;;;;170.70;50.72;;;12.50;99.90;;;;;;5093221;28;20050;-76
2022/10/18 01:19:19;;;;;;;194.20;52.75;;;12.50;99.90;;;;;;5088014;28;20040;-76
2022/10/18 01:21:56;;;;;;;188.38;50.33;;;12.50;99.90;;;;;;5086500;28;20067;-79
2022/10/18 01:24:49;;;;;;;160.55;49.85;;;12.50;99.90;;;;;;5091470;28;20193;-75
2022/10/18 01:27:43;;;;;;;170.30;50.63;;;12.50;99.90;;;;;;5089432;28;20036;-76
2022/10/18 01:30:36;;;;;;;162.25;50.78;;;12.50;99.90;;;;;;5112669;28;20478;-75
2022/10/18 01:33:28;;;;;;;293.85;61.03;;;12.40;99.90;;;;;;5089226;28;20085;-79
2022/10/18 01:36:06;;;;;;;203.07;53.65;;;12.30;99.90;;;;;;5090828;28;20035;-80
2022/10/18 01:38:33;;;;;;;168.65;50.17;;;12.30;99.90;;;;;;5091581;28;20046;-77
2022/10/18 01:41:01;;;;;;;173.70;51.58;;;12.20;99.90;;;;;;5082919;28;20040;-75
2022/10/18 01:43:28;;;;;;;190.20;52.95;;;12.20;99.90;;;;;;5081949;28;20046;-76
2022/10/18 01:45:54;;;;;;;186.13;52.72;;;12.20;99.90;;;;;;5072559;28;20062;-82
2022/10/18 01:48:21;;;;;;;237.65;56.45;;;12.10;99.90;;;;;;5060570;28;20088;-77
2022/10/18 01:50:47;;;;;;;237.55;56.80;;;12.10;99.90;;;;;;5081921;28;20071;-75
2022/10/18 01:53:31;;;;;;;206.18;55.92;;;12.10;99.90;;;;;;5071455;28;20050;-76
2022/10/18 01:56:23;;;;;;;291.08;59.78;;;12.10;99.90;;;;;;5099122;28;20047;-80
2022/10/18 01:58:55;;;;;;;169.57;51.20;;;12.10;99.90;;;;;;5093353;27;20470;-75
2022/10/18 02:01:41;;;;;;;307.52;62.10;;;12.10;99.90;;;;;;5092976;28;20067;-77
2022/10/18 02:04:30;;;;;;;240.43;56.97;;;12.10;99.90;;;;;;5083434;28;20108;-76
2022/10/18 02:07:27;;;;;;;281.38;60.92;;;12.10;99.90;;;;;;5095254;28;20070;-76
2022/10/18 02:10:02;;;;;;;;;;;12.10;99.90;;;;;;5051935;27;20055;-78
2022/10/18 02:12:31;;;;;;;259.33;56.03;;;12.00;99.90;;;;;;5068359;28;19916;-76
2022/10/18 02:14:58;;;;;;;288.25;62.65;;;12.00;99.90;;;;;;5093258;28;20044;-75
2022/10/18 02:17:27;;;;;;;213.82;56.08;;;12.00;99.90;;;;;;5112727;27;20039;-76
2022/10/18 02:19:55;;;;;;;256.60;58.88;;;12.00;99.90;;;;;;5065627;28;20084;-76
2022/10/18 02:22:24;;;;;;;289.73;62.78;;;12.00;99.90;;;;;;5097395;28;20066;-76
2022/10/18 02:24:53;;;;;;;321.10;64.65;;;11.90;99.90;;;;;;5126509;27;20306;-76
2022/10/18 02:27:19;;;;;;;336.35;65.10;;;11.90;99.90;;;;;;5077721;28;20122;-76
2022/10/18 02:29:45;;;;;;;249.57;58.63;;;11.90;99.90;;;;;;5093841;28;20162;-77
2022/10/18 02:32:40;;;;;;;266.30;59.25;;;11.90;99.90;;;;;;5058553;28;20134;-76
2022/10/18 02:35:19;;;;;;;278.60;58.08;;;11.90;99.90;;;;;;5095431;27;20181;-76
2022/10/18 02:37:47;;;;;;;363.15;67.82;;;11.90;99.90;;;;;;5116462;27;20427;-76
2022/10/18 02:40:14;;;;;;;421.83;71.63;;;11.90;99.90;;;;;;5087783;28;20141;-76
2022/10/18 02:42:46;;;;;;;380.25;67.43;;;11.80;99.90;;;;;;5076978;28;20055;-76
2022/10/18 02:45:13;;;;;;;439.30;69.80;;;11.80;99.90;;;;;;5087233;27;20031;-76
2022/10/18 02:47:39;;;;;;;576.38;82.18;;;11.80;99.90;;;;;;5126190;27;20058;-75
2022/10/18 02:50:05;;;;;;;644.58;84.80;;;11.90;99.90;;;;;;5085143;27;20044;-80
2022/10/18 02:52:31;;;;;;;651.88;81.45;;;11.90;99.90;;;;;;5096147;27;20040;-78
2022/10/18 02:54:56;;;;;;;724.72;85.18;;;12.00;99.90;;;;;;5097942;28;20047;-75
2022/10/18 02:57:22;;;;;;;727.63;81.25;;;12.00;99.90;;;;;;5075574;28;20035;-75
2022/10/18 02:59:48;;;;;;;674.83;79.95;;;12.00;99.90;;;;;;5104841;27;20046;-76
2022/10/18 03:02:13;;;;;;;666.78;79.53;;;12.10;99.90;;;;;;5094833;28;20111;-76
2022/10/18 03:04:39;;;;;;;684.28;81.45;;;12.10;99.90;;;;;;5090100;28;20363;-75
2022/10/18 03:07:04;;;;;;;676.88;81.47;;;12.10;99.90;;;;;;5109241;28;20035;-76
2022/10/18 03:09:30;;;;;;;715.88;85.70;;;12.20;99.90;;;;;;5093176;27;20055;-77
2022/10/18 03:11:56;;;;;;;762.63;82.95;;;12.20;99.90;;;;;;5093684;28;20043;-76
2022/10/18 03:14:22;;;;;;;753.75;87.38;;;12.20;99.90;;;;;;5078403;28;20042;-75
2022/10/18 03:16:48;;;;;;;701.63;84.93;;;12.30;99.90;;;;;;5110034;28;20043;-78
2022/10/18 03:19:13;;;;;;;698.50;82.75;;;12.30;99.90;;;;;;5107079;28;20040;-76
2022/10/18 03:21:39;;;;;;;676.90;80.78;;;12.30;99.90;;;;;;5108356;28;20048;-77
2022/10/18 03:24:05;;;;;;;647.33;80.85;;;12.30;99.90;;;;;;5091070;28;20047;-77
2022/10/18 03:26:31;;;;;;;564.95;71.15;;;12.40;99.90;;;;;;5093226;28;20041;-76
2022/10/18 03:28:56;;;;;;;607.63;80.05;;;12.40;99.90;;;;;;5076990;28;20123;-75
2022/10/18 03:31:22;;;;;;;634.95;78.40;;;12.40;99.90;;;;;;5093304;28;20039;-76
2022/10/18 03:33:48;;;;;;;507.65;71.15;;;12.40;99.90;;;;;;5090870;28;20126;-76
2022/10/18 03:36:14;;;;;;;526.78;69.15;;;12.40;99.90;;;;;;5088625;28;20032;-76
2022/10/18 03:38:40;;;;;;;592.78;74.05;;;12.40;99.90;;;;;;5093543;27;20050;-76
2022/10/18 03:41:05;;;;;;;486.23;65.55;;;12.40;99.90;;;;;;5093221;28;20042;-77
2022/10/18 03:43:31;;;;;;;647.65;78.78;;;12.40;99.90;;;;;;5089572;27;20125;-76
2022/10/18 03:45:57;;;;;;;638.70;76.28;;;12.40;99.90;;;;;;5101177;28;20082;-76
2022/10/18 03:48:23;;;;;;;556.65;69.47;;;12.40;99.90;;;;;;5057128;27;20046;-76
2022/10/18 03:50:48;;;;;;;692.40;78.07;;;12.30;99.90;;;;;;5083687;28;20051;-76
2022/10/18 03:53:14;;;;;;;500.27;68.38;;;12.30;99.90;;;;;;5103249;28;20031;-80
2022/10/18 03:55:40;;;;;;;544.47;70.13;;;12.30;99.90;;;;;;5101240;28;20557;-76
2022/10/18 03:58:05;;;;;;;563.75;70.72;;;12.20;99.90;;;;;;5097424;27;20076;-76
2022/10/18 04:00:31;;;;;;;631.25;73.20;;;12.30;99.90;;;;;;5104069;28;20032;-76
2022/10/18 04:02:57;;;;;;;491.80;63.03;;;12.30;99.90;;;;;;5093600;28;20039;-76
2022/10/18 04:05:25;;;;;;;579.90;71.25;;;12.30;99.90;;;;;;5058969;27;20062;-76
2022/10/18 04:07:51;;;;;;;570.03;66.82;;;12.30;99.90;;;;;;5079808;28;20113;-79
2022/10/18 04:10:17;;;;;;;649.45;73.07;;;12.30;99.90;;;;;;5075579;28;20470;-79
2022/10/18 04:12:43;;;;;;;566.80;66.60;;;12.30;99.90;;;;;;5093261;28;20036;-75
2022/10/18 04:15:09;;;;;;;549.40;66.50;;;12.30;99.90;;;;;;5096443;27;20039;-76
2022/10/18 04:17:35;;;;;;;610.28;69.93;;;12.30;99.90;;;;;;5086067;28;20059;-76
2022/10/18 04:20:00;;;;;;;549.80;64.85;;;12.30;99.90;;;;;;5069932;27;20040;-79
2022/10/18 04:22:26;;;;;;;658.97;74.43;;;12.30;99.90;;;;;;5084956;27;20051;-77
2022/10/18 04:24:52;;;;;;;714.25;74.20;;;12.30;99.90;;;;;;5096439;27;20064;-76
2022/10/18 04:27:18;;;;;;;641.20;69.65;;;12.30;99.90;;;;;;5094515;28;20043;-78
2022/10/18 04:29:44;;;;;;;584.72;67.38;;;12.30;99.90;;;;;;5092447;28;20048;-76
2022/10/18 04:32:09;;;;;;;642.38;68.05;;;12.30;99.90;;;;;;5095644;28;20043;-76
2022/10/18 04:34:35;;;;;;;572.33;66.10;;;12.30;99.90;;;;;;5088037;28;20043;-76
2022/10/18 04:37:01;;;;;;;601.42;64.10;;;12.20;99.90;;;;;;5096662;28;20123;-78
2022/10/18 04:39:26;;;;;;;458.80;56.28;;;12.20;99.90;;;;;;5089176;27;20112;-76
2022/10/18 04:41:52;;;;;;;523.30;61.67;;;12.20;99.90;;;;;;5092326;28;20075;-76
2022/10/18 04:44:18;;;;;;;426.30;55.53;;;12.20;99.90;;;;;;5069238;27;20068;-78
2022/10/18 04:46:43;;;;;;;625.00;67.20;;;12.20;99.90;;;;;;5096735;27;20056;-77
2022/10/18 04:49:09;;;;;;;503.15;61.45;;;12.10;99.90;;;;;;5093091;28;20039;-76
2022/10/18 04:51:35;;;;;;;357.90;50.65;;;12.10;99.90;;;;;;5091574;28;20044;-76
2022/10/18 04:54:00;;;;;;;423.88;55.38;;;12.10;99.90;;;;;;5092504;28;20608;-78
2022/10/18 04:56:26;;;;;;;529.55;59.40;;;12.10;99.90;;;;;;5106060;27;20051;-77
2022/10/18 04:58:51;;;;;;;496.83;58.42;;;12.10;99.90;;;;;;5083325;28;20042;-77
2022/10/18 05:01:17;;;;;;;396.00;51.22;;;12.10;99.90;;;;;;5092989;28;20038;-76
2022/10/18 05:03:43;;;;;;;370.17;50.47;;;12.10;99.90;;;;;;5089716;28;20083;-76
2022/10/18 05:06:09;;;;;;;359.67;48.47;;;12.10;99.90;;;;;;5092274;28;20386;-76
2022/10/18 05:08:35;;;;;;;422.25;53.47;;;12.00;99.90;;;;;;5091668;28;20737;-77
2022/10/18 05:11:01;;;;;;;420.45;53.40;;;12.00;99.90;;;;;;5085433;28;20043;-78
2022/10/18 05:13:27;;;;;;;338.63;48.30;;;12.00;99.90;;;;;;5093189;28;20043;-81
2022/10/18 05:15:52;;;;;;;350.35;46.17;;;11.90;99.90;;;;;;5070218;28;20535;-78
2022/10/18 05:18:18;;;;;;;318.60;45.05;;;11.90;99.90;;;;;;5079031;28;20048;-77
2022/10/18 05:20:44;;;;;;;395.58;50.28;;;11.90;99.90;;;;;;5098099;28;20042;-77
2022/10/18 05:23:10;;;;;;;424.40;51.20;;;11.80;99.90;;;;;;5099272;28;20051;-78
2022/10/18 05:25:41;;;;;;;357.05;47.20;;;11.80;99.90;;;;;;5091825;27;20054;-78
2022/10/18 05:28:06;;;;;;;386.10;48.15;;;11.80;99.90;;;;;;5076053;28;20144;-78
2022/10/18 05:30:32;;;;;;;452.05;50.97;;;11.80;99.90;;;;;;5116339;27;20044;-77
2022/10/18 05:32:58;;;;;;;410.08;47.55;;;11.70;99.90;;;;;;5104067;28;20043;-77
2022/10/18 05:35:24;;;;;;;383.30;48.70;;;11.60;99.90;;;;;;5101097;28;20039;-76
2022/10/18 05:37:50;;;;;;;364.23;48.17;;;11.70;99.90;;;;;;5111689;27;20031;-77
2022/10/18 05:40:15;;;;;;;282.77;43.88;;;11.60;99.90;;;;;;5089599;27;20039;-77
2022/10/18 05:42:41;;;;;;;425.30;49.97;;;11.70;99.90;;;;;;5106207;28;20073;-77
2022/10/18 05:45:07;;;;;;;333.65;46.28;;;11.60;99.90;;;;;;5054159;28;20471;-77
2022/10/18 05:47:33;;;;;;;265.90;42.05;;;11.60;99.90;;;;;;5088611;28;20036;-78
2022/10/18 05:49:59;;;;;;;379.75;46.45;;;11.60;99.90;;;;;;5079063;28;20076;-77
2022/10/18 05:52:24;;;;;;;352.17;45.55;;;11.50;99.90;;;;;;5058701;28;20497;-77
2022/10/18 05:54:50;;;;;;;338.55;45.17;;;11.60;99.90;;;;;;5102599;28;20063;-78
2022/10/18 05:57:16;;;;;;;343.13;45.60;;;11.50;99.90;;;;;;5088208;28;20051;-79
2022/10/18 05:59:42;;;;;;;315.08;42.65;;;11.50;99.90;;;;;;5101835;27;20031;-78
2022/10/18 06:02:10;;;;;;;336.95;44.95;;;11.40;99.90;;;;;;5066883;27;20039;-82
2022/10/18 06:04:38;;;;;;;323.80;44.00;;;11.40;99.90;;;;;;5074199;27;20047;-76
2022/10/18 06:07:09;;;;;;;366.20;44.90;;;11.40;99.90;;;;;;5095752;28;20036;-78
2022/10/18 06:09:34;;;;;;;455.60;47.55;;;11.30;99.90;;;;;;5083631;28;20512;-81
2022/10/18 06:12:00;;;;;;;414.15;47.38;;;11.30;99.90;;;;;;5083593;28;20043;-78
2022/10/18 06:14:29;;;;;;;392.55;46.30;;;11.30;99.90;;;;;;5105644;28;20473;-81
2022/10/18 06:16:55;;;;;;;447.77;47.53;;;11.20;99.90;;;;;;5084001;28;20146;-76
2022/10/18 06:19:24;;;;;;;479.20;50.80;;;11.20;99.90;;;;;;5094767;28;20048;-77
2022/10/18 06:21:49;;;;;;;471.77;46.40;;;11.20;99.90;;;;;;5095771;27;20541;-76
2022/10/18 06:24:15;;;;;;;448.80;43.90;;;11.20;99.90;;;;;;5084148;28;20044;-78
2022/10/18 06:26:41;;;;;;;546.75;48.20;;;11.20;99.90;;;;;;5060442;28;20529;-77
2022/10/18 06:29:06;;;;;;;531.47;48.03;;;11.20;99.90;;;;;;5071118;28;20378;-77
2022/10/18 06:31:32;;;;;;;441.65;44.13;;;11.20;99.90;;;;;;5072482;27;20109;-76
2022/10/18 06:33:58;;;;;;;461.25;44.70;;;11.20;99.90;;;;;;5079399;27;20064;-76
2022/10/18 06:36:24;;;;;;;389.33;42.40;;;11.20;99.90;;;;;;5096605;28;20043;-76
2022/10/18 06:38:50;;;;;;;510.67;45.35;;;11.20;99.90;;;;;;5073988;27;20074;-76
2022/10/18 06:41:18;;;;;;;508.25;47.58;;;11.30;99.90;;;;;;5079614;28;20044;-77
2022/10/18 06:43:52;;;;;;;426.17;42.90;;;11.30;99.90;;;;;;5075300;28;20081;-76
2022/10/18 06:46:18;;;;;;;599.13;48.63;;;11.30;99.90;;;;;;5090248;28;20097;-78
2022/10/18 06:48:43;;;;;;;381.23;41.60;;;11.30;99.90;;;;;;5056447;28;20052;-76
2022/10/18 06:51:10;;;;;;;333.58;38.42;;;11.20;99.90;;;;;;5067943;28;20531;-76
2022/10/18 06:53:37;;;;;;;376.75;40.20;;;11.20;99.90;;;;;;5079470;28;20051;-77
2022/10/18 06:56:06;;;;;;;430.02;43.28;;;11.20;99.90;;;;;;5063922;28;20051;-76
2022/10/18 06:58:33;;;;;;;349.67;39.97;;;11.20;99.90;;;;;;5072573;28;20046;-76
2022/10/18 07:01:05;;;;;;;336.42;39.17;;;11.30;99.90;;;;;;5095284;27;20074;-76
2022/10/18 07:03:33;;;;;;;314.13;36.22;;;11.30;99.90;;;;;;5089947;28;20044;-76
2022/10/18 07:06:01;;;;;;;422.05;42.55;;;11.30;99.90;;;;;;5086026;27;20046;-79
2022/10/18 07:08:27;;;;;;;327.35;37.83;;;11.30;99.90;;;;;;5094062;28;20035;-76
2022/10/18 07:10:53;;;;;;;315.55;41.33;;;11.30;99.90;;;;;;5080986;28;20047;-76
2022/10/18 07:13:20;;;;;;;237.52;35.53;;;11.30;99.90;;;;;;5084138;28;20028;-75
2022/10/18 07:15:46;;;;;;;622.85;68.57;;;11.30;99.90;;;;;;5086105;27;20052;-76
2022/10/18 07:18:12;;;;;;;255.07;39.45;;;11.30;99.90;;;;;;5071632;28;20081;-76
2022/10/18 07:20:37;;;;;;;228.98;35.78;;;11.40;99.90;;;;;;5086916;28;20047;-76
2022/10/18 07:23:05;;;;;;;282.90;38.92;;;11.40;99.90;;;;;;5094836;28;20914;-76
2022/10/18 07:25:31;;;;;;;280.30;36.38;;;11.40;99.90;;;;;;5115186;27;20075;-77
2022/10/18 07:27:57;;;;;;;262.98;35.05;;;11.50;99.90;;;;;;5074913;27;20478;-76
2022/10/18 07:30:22;;;;;;;237.02;32.40;;;11.50;99.90;;;;;;5096753;27;20051;-76
2022/10/18 07:32:50;;;;;;;210.52;31.13;;;11.40;99.90;;;;;;5081908;28;20136;-77
2022/10/18 07:35:16;;;;;;;237.05;32.50;;;11.40;99.90;;;;;;5087294;27;20089;-77
2022/10/18 07:37:42;;;;;;;234.05;33.53;;;11.40;99.90;;;;;;5096625;28;20438;-76
2022/10/18 07:40:08;;;;;;;302.13;36.65;;;11.50;99.90;;;;;;5082700;28;20066;-77
2022/10/18 07:42:34;;;;;;;303.02;36.53;;;11.40;99.90;;;;;;5068172;27;20089;-78
2022/10/18 07:45:00;;;;;;;276.85;37.38;;;11.40;99.90;;;;;;5064886;28;20819;-77
2022/10/18 07:47:26;;;;;;;260.65;36.33;;;11.50;99.90;;;;;;5084282;28;20071;-78
2022/10/18 07:49:52;;;;;;;172.48;31.38;;;11.50;99.90;;;;;;5076377;28;20127;-77
2022/10/18 07:52:17;;;;;;;233.50;32.97;;;11.50;99.90;;;;;;5094478;28;20073;-76
2022/10/18 07:54:43;;;;;;;302.33;36.70;;;11.60;99.90;;;;;;5100326;28;20040;-79
2022/10/18 07:57:08;;;;;;;230.18;34.92;;;11.60;99.90;;;;;;5098532;27;20038;-77
2022/10/18 07:59:34;;;;;;;210.45;31.95;;;11.70;99.90;;;;;;5090307;27;20385;-76
2022/10/18 08:02:01;;;;;;;273.20;37.40;;;11.70;99.90;;;;;;5081941;28;20052;-76
2022/10/18 08:04:27;;;;;;;244.98;37.08;;;11.70;99.90;;;;;;5102769;27;20096;-76
2022/10/18 08:06:52;;;;;;;234.65;34.90;;;11.70;99.90;;;;;;5106869;27;20032;-77
2022/10/18 08:09:18;;;;;;;197.25;32.83;;;11.60;99.90;;;;;;5072663;28;20130;-76
2022/10/18 08:11:44;;;;;;;163.25;32.58;;;11.60;99.90;;;;;;5056719;28;20072;-78
2022/10/18 08:14:09;;;;;;;166.38;30.60;;;11.60;99.90;;;;;;5088694;28;20623;-77
2022/10/18 08:16:35;;;;;;;172.80;32.03;;;11.70;99.90;;;;;;5118563;27;20150;-77
2022/10/18 08:19:01;;;;;;;136.52;30.40;;;11.80;99.90;;;;;;5086195;28;20047;-77
2022/10/18 08:21:26;;;;;;;136.50;28.13;;;11.70;99.90;;;;;;5069018;28;20082;-76
2022/10/18 08:23:55;;;;;;;112.55;27.25;;;11.70;99.90;;;;;;5089058;28;20092;-82
2022/10/18 08:26:21;;;;;;;120.25;27.50;;;11.70;99.90;;;;;;5117293;27;20158;-76
2022/10/18 08:28:48;;;;;;;66.50;21.80;;;11.60;99.90;;;;;;5098576;28;20032;-77
2022/10/18 08:31:16;;;;;;;61.80;21.88;;;11.50;99.90;;;;;;5096452;27;20486;-76
2022/10/18 08:33:42;;;;;;;73.45;24.48;;;11.40;99.90;;;;;;5080841;27;20042;-77
2022/10/18 08:36:11;;;;;;;85.28;24.48;;;11.50;99.90;;;;;;5058979;28;20531;-75
2022/10/18 08:38:38;;;;;;;90.40;24.20;;;11.70;99.90;;;;;;5079716;27;20126;-76
2022/10/18 08:41:26;;;;;;;73.70;24.65;;;11.80;99.90;;;;;;5080470;28;20038;-78
2022/10/18 08:44:06;;;;;;;67.13;21.90;;;12.00;99.90;;;;;;5100400;27;20046;-75
2022/10/18 08:46:34;;;;;;;53.33;21.88;;;12.00;99.90;;;;;;5100384;27;20477;-76
2022/10/18 08:49:02;;;;;;;67.70;24.17;;;12.00;99.90;;;;;;5093621;28;20098;-76
2022/10/18 08:51:41;;;;;;;54.58;21.85;;;12.10;99.90;;;;;;5093144;28;20438;-80
2022/10/18 08:54:13;;;;;;;53.00;20.25;;;12.00;99.90;;;;;;5072121;28;20035;-78
2022/10/18 08:56:44;;;;;;;50.10;21.33;;;12.00;99.90;;;;;;5091980;28;20052;-76
2022/10/18 08:59:13;;;;;;;51.17;20.88;;;12.00;99.90;;;;;;5083077;28;20059;-76
2022/10/18 09:01:41;;;;;;;45.25;20.00;;;12.00;99.90;;;;;;5093410;28;20036;-76
2022/10/18 09:04:22;;;;;;;50.20;21.35;;;12.00;99.90;;;;;;5097905;27;20092;-76
2022/10/18 09:06:54;;;;;;;37.33;18.77;;;11.90;99.90;;;;;;5099792;28;20148;-78
2022/10/18 09:09:44;;;;;;;37.40;18.70;;;12.00;99.90;;;;;;5088985;28;20118;-75
2022/10/18 09:12:47;;;;;;;47.22;20.60;;;12.10;99.90;;;;;;5126796;27;20055;-77
2022/10/18 09:15:28;;;;;;;49.95;20.67;;;12.20;99.90;;;;;;5095895;28;20122;-77
2022/10/18 09:17:57;;;;;;;47.65;20.25;;;12.20;99.90;;;;;;5091761;28;20039;-75
2022/10/18 09:20:31;;;;;;;32.88;17.55;;;12.10;99.90;;;;;;5089937;28;20485;-74
2022/10/18 09:23:23;;;;;;;34.30;17.30;;;12.10;99.90;;;;;;5089987;28;20181;-74
2022/10/18 09:26:11;;;;;;;29.92;15.48;;;12.10;99.90;;;;;;5077032;28;20046;-78
2022/10/18 09:28:40;;;;;;;32.75;16.17;;;12.20;99.90;;;;;;5094506;28;20487;-75
2022/10/18 09:31:31;;;;;;;31.25;15.20;;;12.30;99.90;;;;;;5075539;28;20376;-75
2022/10/18 09:34:22;;;;;;;28.58;14.10;;;12.40;99.90;;;;;;5081248;28;20440;-74
2022/10/18 09:36:50;;;;;;;20.88;13.10;;;12.50;99.90;;;;;;5105661;28;20042;-74
2022/10/18 09:39:24;;;;;;;26.23;13.23;;;12.60;99.90;;;;;;5091262;28;20047;-75
2022/10/18 09:41:57;;;;;;;22.30;11.25;;;12.60;99.90;;;;;;5106893;28;20038;-74
2022/10/18 09:44:33;;;;;;;26.33;10.60;;;12.70;99.90;;;;;;5085394;28;20470;-75
2022/10/18 09:47:01;;;;;;;;;;;12.70;99.90;;;;;;5088373;27;20043;-74
2022/10/18 09:49:48;;;;;;;21.65;9.18;;;12.70;99.90;;;;;;5082934;28;19916;-74
2022/10/18 09:52:43;;;;;;;20.45;7.40;;;12.80;99.90;;;;;;5092820;28;20037;-74
2022/10/18 09:55:21;;;;;;;19.95;8.25;;;12.90;99.90;;;;;;5084817;28;20149;-75
2022/10/18 09:57:55;;;;;;;25.27;8.52;;;13.00;99.90;;;;;;5082061;28;20052;-75
2022/10/18 10:00:28;;;;;;;14.98;6.50;;;13.10;99.90;;;;;;5076310;28;20070;-75
2022/10/18 10:02:54;;;;;;;18.60;7.30;;;13.20;99.90;;;;;;5084057;28;20039;-75
2022/10/18 10:05:20;;;;;;;17.92;6.35;;;13.20;99.90;;;;;;5054000;28;20048;-75
2022/10/18 10:07:47;;;;;;;24.33;6.13;;;13.30;99.90;;;;;;5083624;28;20047;-78
2022/10/18 10:10:15;;;;;;;18.20;5.45;;;13.40;99.90;;;;;;5087720;28;20051;-77
2022/10/18 10:12:41;;;;;;;20.58;5.00;;;13.40;99.90;;;;;;5077844;28;20095;-79
2022/10/18 10:15:25;;;;;;;17.85;4.10;;;13.50;99.90;;;;;;5090264;28;20040;-75
2022/10/18 10:18:15;;;;;;;16.88;3.20;;;13.60;99.90;;;;;;5099963;28;20502;-76
2022/10/18 10:20:53;;;;;;;16.52;2.92;;;13.60;99.90;;;;;;5108627;27;20494;-78
2022/10/18 10:23:27;;;;;;;23.55;3.08;;;13.50;99.90;;;;;;5078615;28;20038;-75
2022/10/18 10:25:58;;;;;;;15.35;2.70;;;13.60;99.90;;;;;;5126005;27;20047;-74
2022/10/18 10:28:40;;;;;;;15.82;2.88;;;13.60;99.90;;;;;;5081399;28;20428;-75
2022/10/18 10:31:33;;;;;;;15.35;3.92;;;13.60;99.90;;;;;;5079400;28;20052;-76
2022/10/18 10:34:16;;;;;;;13.60;2.50;;;13.70;99.90;;;;;;5069980;28;20083;-79
2022/10/18 10:36:50;;;;;;;10.45;2.15;;;14.00;99.90;;;;;;5113566;27;20047;-78
2022/10/18 10:39:18;;;;;;;16.17;2.90;;;14.40;99.90;;;;;;5087686;28;20484;-78
2022/10/18 10:41:56;;;;;;;16.10;2.42;;;14.80;99.90;;;;;;5084228;28;20394;-76
2022/10/18 10:44:31;;;;;;;12.05;2.05;;;15.30;99.90;;;;;;5080895;28;20502;-78
2022/10/18 10:46:58;;;;;;;14.88;2.53;;;15.50;99.90;;;;;;5084058;28;20110;-78
2022/10/18 10:49:30;;;;;;;15.25;2.25;;;15.50;99.90;;;;;;5090968;28;20045;-77
2022/10/18 10:52:01;;;;;;;13.57;2.72;;;15.40;99.90;;;;;;5088670;27;20050;-78
2022/10/18 10:54:34;;;;;;;10.60;2.28;;;15.00;99.90;;;;;;5089078;28;20105;-78
2022/10/18 10:57:01;;;;;;;17.80;2.95;;;14.60;99.90;;;;;;5111866;27;20048;-77
2022/10/18 10:59:33;;;;;;;8.95;1.95;;;14.40;99.90;;;;;;5083722;27;20442;-77
2022/10/18 11:02:16;;;;;;;12.27;2.00;;;14.30;99.90;;;;;;5112567;27;20125;-78
2022/10/18 11:04:43;;;;;;;12.32;2.13;;;14.00;99.90;;;;;;5090782;27;20117;-77
2022/10/18 11:07:28;;;;;;;12.57;2.17;;;13.80;99.90;;;;;;5080936;27;20047;-77
2022/10/18 11:10:09;;;;;;;10.00;2.28;;;13.50;99.90;;;;;;5090178;28;20071;-77
2022/10/18 11:12:44;;;;;;;10.30;2.33;;;13.40;99.90;;;;;;5091955;28;20126;-77
2022/10/18 11:15:15;;;;;;;12.35;2.35;;;13.20;99.90;;;;;;5074000;28;20047;-79
2022/10/18 11:18:28;;;;;;;12.50;1.70;;;13.30;99.90;;;;;;5088883;27;20055;-78
2022/10/18 11:21:28;;;;;;;13.98;2.25;;;13.30;99.90;;;;;;5067504;28;20048;-77
2022/10/18 11:23:54;;;;;;;8.57;1.83;;;13.80;99.90;;;;;;5114885;27;20046;-78
2022/10/18 11:26:28;;;;;;;12.05;1.60;;;13.90;99.90;;;;;;5122977;27;20071;-78
2022/10/18 11:29:03;;;;;;;6.82;1.75;;;14.00;99.90;;;;;;5090992;27;20043;-77
2022/10/18 11:31:46;;;;;;;16.35;1.95;;;13.90;99.90;;;;;;5096786;28;20035;-77
2022/10/18 11:34:51;;;;;;;12.40;3.08;;;13.70;99.90;;;;;;5085646;28;20099;-78
2022/10/18 11:37:27;;;;;;;10.43;2.25;;;13.50;99.90;;;;;;4975805;28;20047;-83
2022/10/18 11:40:07;;;;;;;10.32;2.17;;;13.40;99.90;;;;;;5075562;27;20080;-78
2022/10/18 11:42:48;;;;;;;8.52;1.77;;;13.50;99.90;;;;;;5099447;28;20054;-78
2022/10/18 11:45:41;;;;;;;14.95;2.13;;;13.70;99.90;;;;;;5082754;28;20101;-77
2022/10/18 11:48:31;;;;;;;9.55;1.63;;;14.00;99.90;;;;;;5097101;27;20046;-78
2022/10/18 11:51:23;;;;;;;13.35;1.63;;;14.20;99.90;;;;;;5074981;28;20048;-78
2022/10/18 11:54:19;;;;;;;11.77;1.90;;;14.30;99.90;;;;;;5086299;28;20055;-77
2022/10/18 11:57:04;;;;;;;12.90;3.10;;;14.30;99.90;;;;;;5079271;27;20043;-78
2022/10/18 11:59:48;;;;;;;9.07;3.92;;;14.30;99.90;;;;;;5065087;28;20429;-77
2022/10/18 12:02:55;;;;;;;10.85;2.00;;;14.40;99.90;;;;;;5115923;27;20035;-77
2022/10/18 12:05:22;;;;;;;10.75;3.17;;;14.50;99.90;;;;;;5073207;28;20036;-82
2022/10/18 12:07:57;;;;;;;8.55;1.95;;;14.60;99.90;;;;;;5080335;27;20043;-76
2022/10/18 12:10:24;;;;;;;10.50;2.47;;;14.70;99.90;;;;;;5072162;28;20042;-77
2022/10/18 12:12:59;;;;;;;10.80;2.70;;;14.80;99.90;;;;;;5101301;27;20055;-77
2022/10/18 12:15:27;;;;;;;13.65;1.73;;;15.00;99.90;;;;;;5107197;27;20048;-77
2022/10/18 12:17:57;;;;;;;9.82;1.80;;;15.20;99.90;;;;;;5077949;27;20182;-78
2022/10/18 12:20:47;;;;;;;10.15;1.33;;;15.50;99.90;;;;;;5089114;28;20115;-82
2022/10/18 12:23:24;;;;;;;10.30;1.80;;;15.90;99.90;;;;;;5082553;28;20036;-77
2022/10/18 12:25:59;;;;;;;8.18;1.23;;;16.10;99.90;;;;;;5117739;27;20077;-80
2022/10/18 12:29:02;;;;;;;13.40;2.17;;;15.80;99.90;;;;;;5087400;28;20470;-79
2022/10/18 12:31:47;;;;;;;10.80;1.52;;;15.40;99.90;;;;;;5079471;28;20122;-76
2022/10/18 12:34:34;;;;;;;7.43;1.17;;;15.00;99.90;;;;;;5092717;28;20027;-79
2022/10/18 12:37:15;;;;;;;9.13;1.50;;;14.80;99.90;;;;;;5114102;27;20052;-77
2022/10/18 12:39:54;;;;;;;10.15;1.45;;;14.70;99.90;;;;;;5119238;27;20052;-80
2022/10/18 12:42:24;;;;;;;6.20;1.33;;;14.70;99.90;;;;;;5076269;28;20040;-77
2022/10/18 12:45:04;;;;;;;10.77;2.05;;;14.80;99.90;;;;;;5087955;28;20089;-77